ADDS METAR Data INFO
IDs: Format: Raw Decoded Include TAF

Data at: 1120 UTC 21 Feb 2018

KAVX 201451Z AUTO 29009KT 10SM CLR 06/M05 A3009 RMK AO2 SLP198 T00611050 53021
KAVX 201351Z AUTO 33007KT 10SM CLR 06/M06 A3007 RMK AO2 SLP189 T00611056
KAVX 201251Z AUTO 33007KT 10SM CLR 06/M05 A3005 RMK AO2 SLP182 T00611050
KAVX 201151Z AUTO 33007G15KT 10SM CLR 06/M06 A3003 RMK AO2 SLP173 T00611056 10078 20061 58004
KAVX 201051Z AUTO 34010G16KT 10SM CLR 06/M06 A3004 RMK AO2 SLP176 T00611056
KAVX 200951Z AUTO 35008KT 10SM CLR 07/M06 A3005 RMK AO2 SLP179 T00671056
KAVX 200851Z AUTO 33011KT 10SM CLR 07/M06 A3004 RMK AO2 SLP177 T00671056 51015
KAVX 200751Z AUTO 36012KT 10SM CLR 07/M03 A3004 RMK AO2 SLP174 T00671033 401060067
KAVX 200651Z AUTO 34009KT 10SM CLR 07/M05 A3002 RMK AO2 SLP168 T00721050
KAVX 200551Z AUTO 33007G18KT 10SM CLR 08/M07 A3000 RMK AO2 SLP161 T00781067 10089 20072 51020
KAVX 200451Z AUTO 33010G19KT 10SM FEW042 SCT065 08/M03 A2998 RMK AO2 PK WND 32027/0354 SLP156 T00781033
KAVX 200351Z AUTO 34016G23KT 10SM BKN040 OVC047 08/M03 A2996 RMK AO2 PK WND 32032/0306 SLP150 T00831028
KAVX 200251Z AUTO 31014G26KT 10SM FEW036 SCT080 08/M01 A2993 RMK AO2 PK WND 31029/0233 SLP141 T00831006 53011
KAVX 200151Z AUTO 30015G22KT 10SM CLR 08/M01 A2991 RMK AO2 PK WND 29027/0104 SLP134 T00781006
KAVX 200051Z AUTO 30021G26KT 10SM SCT032 SCT042 08/00 A2990 RMK AO2 PK WND 28031/2352 SLP129 T00830000
KAVX 192351Z AUTO 28024G31KT 10SM BKN034 BKN046 09/01 A2990 RMK AO2 PK WND 28034/2326 SLP129 T00890006 10106 20089 55005